Time;durP1;ratioP1;P1;durP2;ratioP2;P2;SDS_P1;SDS_P2;PMS_P1;PMS_P2;Temp;Humidity;BMP_temperature;BMP_pressure;BME280_temperature;BME280_humidity;BME280_pressure;Samples;Min_cycle;Max_cycle;Signal;HPM_P1;HPM_P2
2021/12/08 00:01:21;;;;;;;;;;;4.80;99.90;;;;;;8378281;28;19944;-70
2021/12/08 00:05:23;;;;;;;;;;;4.80;99.90;;;;;;8377672;28;19967;-69
2021/12/08 00:09:28;;;;;;;;;;;4.80;99.90;;;;;;8384275;28;20376;-70
2021/12/08 00:13:33;;;;;;;;;;;4.80;99.90;;;;;;8381166;28;20364;-69
2021/12/08 00:17:35;;;;;;;;;;;4.80;99.90;;;;;;8386404;28;19943;-69
2021/12/08 00:21:36;;;;;;;;;;;4.80;99.90;;;;;;8387167;28;20291;-70
2021/12/08 00:25:38;;;;;;;;;;;4.80;99.90;;;;;;8389270;28;19932;-69
2021/12/08 00:29:40;;;;;;;;;;;4.80;99.90;;;;;;8396263;28;19987;-69
2021/12/08 00:33:41;;;;;;;;;;;4.90;99.90;;;;;;8366491;28;20387;-70
2021/12/08 00:37:43;;;;;;;;;;;4.90;99.90;;;;;;8380214;28;19975;-70
2021/12/08 00:41:45;;;;;;;;;;;4.90;99.90;;;;;;8386530;28;19924;-70
2021/12/08 00:45:47;;;;;;;;;;;5.00;99.90;;;;;;8389820;28;19935;-70
2021/12/08 00:49:49;;;;;;;;;;;5.00;99.90;;;;;;8382983;28;19970;-70
2021/12/08 00:53:50;;;;;;;;;;;5.00;99.90;;;;;;8383940;28;19943;-70
2021/12/08 00:57:52;;;;;;;;;;;5.00;99.90;;;;;;8377853;28;19924;-70
2021/12/08 01:01:54;;;;;;;;;;;5.10;99.90;;;;;;8386238;28;19940;-70
2021/12/08 01:05:56;;;;;;;;;;;5.10;99.90;;;;;;8382377;28;19925;-70
2021/12/08 01:09:58;;;;;;;;;;;5.10;99.90;;;;;;8391443;28;19924;-70
2021/12/08 01:13:59;;;;;;;;;;;5.10;99.90;;;;;;8365901;28;19929;-70
2021/12/08 01:18:01;;;;;;;;;;;5.20;99.90;;;;;;8367092;28;19947;-70
2021/12/08 01:22:03;;;;;;;;;;;5.20;99.90;;;;;;8388246;28;19940;-70
2021/12/08 01:26:05;;;;;;;;;;;5.30;99.90;;;;;;8382266;28;20367;-69
2021/12/08 01:30:08;;;;;;;;;;;5.30;99.90;;;;;;8387445;28;19967;-70
2021/12/08 01:34:10;;;;;;;;;;;5.30;99.90;;;;;;8383303;28;19928;-70
2021/12/08 01:38:12;;;;;;;;;;;5.40;99.90;;;;;;8385761;28;20017;-70
2021/12/08 01:42:24;;;;;;;;;;;5.40;99.90;;;;;;8381661;28;19932;-70
2021/12/08 01:46:26;;;;;;;;;;;5.40;99.90;;;;;;8382358;28;19956;-69
2021/12/08 01:50:27;;;;;;;;;;;5.50;99.90;;;;;;8386136;28;20386;-70
2021/12/08 01:54:29;;;;;;;;;;;5.50;99.90;;;;;;8379899;28;19924;-70
2021/12/08 01:58:31;;;;;;;;;;;5.60;99.90;;;;;;8385236;28;20392;-70
2021/12/08 02:02:33;;;;;;;;;;;5.60;99.90;;;;;;8381278;28;19975;-69
2021/12/08 02:06:36;;;;;;;;;;;5.70;99.90;;;;;;8379416;28;19924;-70
2021/12/08 02:10:38;;;;;;;;;;;5.70;99.90;;;;;;8383302;28;19964;-70
2021/12/08 02:14:40;;;;;;;;;;;5.80;99.90;;;;;;8382765;28;19928;-69
2021/12/08 02:18:44;;;;;;;;;;;5.80;99.90;;;;;;8385213;28;19928;-69
2021/12/08 02:22:45;;;;;;;;;;;5.90;99.90;;;;;;8384312;28;19931;-70
2021/12/08 02:26:50;;;;;;;;;;;5.90;99.90;;;;;;8383247;28;19975;-70
2021/12/08 02:30:59;;;;;;;;;;;6.00;99.90;;;;;;8388110;28;19928;-70
2021/12/08 02:48:02;;;;;;;;;;;6.20;99.90;;;;;;8381789;28;19972;-70
2021/12/08 02:52:04;;;;;;;;;;;6.20;99.90;;;;;;8381460;28;20024;-70
2021/12/08 02:56:05;;;;;;;;;;;6.20;99.90;;;;;;8380058;28;20020;-70
2021/12/08 03:00:09;;;;;;;;;;;6.30;99.90;;;;;;8384412;28;19964;-70
2021/12/08 03:04:10;;;;;;;;;;;6.30;99.90;;;;;;8372798;28;19925;-70
2021/12/08 03:08:13;;;;;;;;;;;6.30;99.90;;;;;;8393010;28;20409;-70
2021/12/08 03:12:28;;;;;;;;;;;6.40;99.90;;;;;;8392366;28;19943;-70
2021/12/08 03:16:30;;;;;;;;;;;6.40;99.90;;;;;;8372689;28;19929;-70
2021/12/08 03:20:43;;;;;;;;;;;6.40;99.90;;;;;;8368936;28;20375;-70
2021/12/08 03:24:47;;;;;;;;;;;6.40;99.90;;;;;;8397837;28;20738;-70
2021/12/08 03:28:58;;;;;;;;;;;6.40;99.90;;;;;;8371334;28;19940;-70
2021/12/08 03:33:00;;;;;;;;;;;6.50;99.90;;;;;;8388867;28;19925;-70
2021/12/08 03:37:03;;;;;;;;;;;6.50;99.90;;;;;;8388861;28;20222;-70
2021/12/08 03:41:05;;;;;;;;;;;6.50;99.90;;;;;;8382840;28;19972;-70
2021/12/08 03:45:09;;;;;;;;;;;6.50;99.90;;;;;;8383098;28;20364;-70
2021/12/08 03:49:13;;;;;;;;;;;6.50;99.90;;;;;;8382372;28;19931;-70
2021/12/08 03:53:16;;;;;;;;;;;6.50;99.90;;;;;;8385201;28;19925;-70
2021/12/08 03:57:18;;;;;;;;;;;6.50;99.90;;;;;;8390005;28;19925;-70
2021/12/08 04:01:19;;;;;;;;;;;6.50;99.90;;;;;;8389390;28;20394;-70
2021/12/08 04:05:31;;;;;;;;;;;6.50;99.90;;;;;;8388390;28;19987;-70
2021/12/08 04:09:39;;;;;;;;;;;6.60;99.90;;;;;;8384043;28;19968;-70
2021/12/08 04:13:47;;;;;;;;;;;6.50;99.90;;;;;;8380329;28;20423;-70
2021/12/08 04:17:49;;;;;;;;;;;6.50;99.90;;;;;;8379855;28;20444;-69
2021/12/08 04:21:54;;;;;;;;;;;6.50;99.90;;;;;;8388045;28;19924;-70
2021/12/08 04:25:59;;;;;;;;;;;6.50;99.90;;;;;;8381155;28;19924;-70
2021/12/08 04:30:00;;;;;;;;;;;6.50;99.90;;;;;;8383266;28;19926;-69
2021/12/08 04:34:04;;;;;;;;;;;6.50;99.90;;;;;;8363991;28;20280;-70
2021/12/08 04:38:07;;;;;;;;;;;6.50;99.90;;;;;;8347190;28;19929;-70
2021/12/08 04:42:14;;;;;;;;;;;6.60;99.90;;;;;;8366812;28;19964;-70
2021/12/08 05:03:45;;;;;;;;;;;6.50;99.90;;;;;;8370021;28;19925;-70
2021/12/08 05:11:54;;;;;;;;;;;6.30;99.90;;;;;;8380485;28;19924;-70
2021/12/08 05:15:56;;;;;;;;;;;6.30;99.90;;;;;;8385529;28;19924;-70
2021/12/08 05:19:59;;;;;;;;;;;6.30;99.90;;;;;;8381028;28;19978;-70
2021/12/08 05:24:12;;;;;;;;;;;6.20;99.90;;;;;;8389156;28;19975;-70
2021/12/08 05:28:18;;;;;;;;;;;6.20;99.90;;;;;;8376961;28;19924;-70
2021/12/08 05:32:20;;;;;;;;;;;6.20;99.90;;;;;;8375084;28;19931;-70
2021/12/08 05:36:23;;;;;;;;;;;6.10;99.90;;;;;;8382719;28;19932;-70
2021/12/08 05:40:29;;;;;;;;;;;6.10;99.90;;;;;;8388437;28;21733;-70
2021/12/08 05:44:31;;;;;;;;;;;6.10;99.90;;;;;;8387617;28;19975;-70
2021/12/08 05:48:34;;;;;;;;;;;6.00;99.90;;;;;;8384669;28;19931;-70
2021/12/08 05:52:35;;;;;;;;;;;6.00;99.90;;;;;;8388104;28;19924;-70
2021/12/08 05:56:37;;;;;;;;;;;5.90;99.90;;;;;;8382454;28;20050;-70
2021/12/08 06:00:42;;;;;;;;;;;5.80;99.90;;;;;;8367823;28;20026;-70
2021/12/08 06:04:44;;;;;;;;;;;5.80;99.90;;;;;;8381172;28;19924;-70
2021/12/08 06:08:46;;;;;;;;;;;5.70;99.90;;;;;;8387191;28;20181;-70
2021/12/08 06:12:49;;;;;;;;;;;5.70;99.90;;;;;;8395124;28;19924;-70
2021/12/08 06:16:52;;;;;;;;;;;5.60;99.90;;;;;;8377590;28;20385;-70
2021/12/08 06:20:55;;;;;;;;;;;5.60;99.90;;;;;;8383140;28;19948;-70
2021/12/08 06:24:57;;;;;;;;;;;5.50;99.90;;;;;;8377499;28;19924;-70
2021/12/08 06:29:01;;;;;;;;;;;5.50;99.90;;;;;;8386900;28;19948;-70
2021/12/08 06:33:03;;;;;;;;;;;5.40;99.90;;;;;;8387093;28;19940;-70
2021/12/08 06:37:09;;;;;;;;;;;5.40;99.90;;;;;;8387134;28;19932;-70
2021/12/08 06:41:13;;;;;;;;;;;5.40;99.90;;;;;;8399556;28;19936;-70
2021/12/08 06:45:18;;;;;;;;;;;5.30;99.90;;;;;;8384742;28;19929;-70
2021/12/08 06:49:20;;;;;;;;;;;5.30;99.90;;;;;;8382742;28;20008;-70
2021/12/08 06:53:23;;;;;;;;;;;5.30;99.90;;;;;;8389700;28;20011;-70
2021/12/08 06:57:28;;;;;;;;;;;5.20;99.90;;;;;;8384450;28;20039;-70
2021/12/08 07:01:55;;;;;;;;;;;5.20;99.90;;;;;;8373899;28;20099;-70
2021/12/08 07:10:06;;;;;;;;;;;5.10;99.90;;;;;;8384418;28;20421;-70
2021/12/08 07:14:08;;;;;;;;;;;5.10;99.90;;;;;;8370450;28;19925;-70
2021/12/08 07:18:14;;;;;;;;;;;5.10;99.90;;;;;;8379526;28;20012;-70
2021/12/08 07:22:24;;;;;;;;;;;5.00;99.90;;;;;;8386172;28;20344;-70
2021/12/08 07:26:28;;;;;;;;;;;5.00;99.90;;;;;;8388594;28;20294;-70
2021/12/08 07:30:32;;;;;;;;;;;5.00;99.90;;;;;;8377138;28;19924;-70
2021/12/08 07:34:35;;;;;;;;;;;4.90;99.90;;;;;;8372034;28;19924;-70
2021/12/08 07:38:38;;;;;;;;;;;4.90;99.90;;;;;;8388781;28;20295;-70
2021/12/08 07:42:44;;;;;;;;;;;4.90;99.90;;;;;;8389467;28;19956;-70
2021/12/08 07:46:47;;;;;;;;;;;4.90;99.90;;;;;;8384354;28;19959;-70
2021/12/08 07:51:03;;;;;;;;;;;4.90;99.90;;;;;;8398277;28;19925;-70
2021/12/08 07:55:17;;;;;;;;;;;4.90;99.90;;;;;;8393812;28;20055;-70
2021/12/08 07:59:19;;;;;;;;;;;4.90;99.90;;;;;;8383508;28;19928;-70
2021/12/08 08:03:21;;;;;;;;;;;5.00;99.90;;;;;;8382248;28;20118;-70
2021/12/08 08:07:23;;;;;;;;;;;5.00;99.90;;;;;;8355483;28;19994;-70
2021/12/08 08:11:30;;;;;;;;;;;5.00;99.90;;;;;;8381992;28;19948;-70
2021/12/08 08:15:33;;;;;;;;;;;5.00;99.90;;;;;;8380061;28;19932;-70
2021/12/08 08:19:42;;;;;;;;;;;5.00;99.90;;;;;;8380963;28;19935;-70
2021/12/08 08:23:43;;;;;;;;;;;5.00;99.90;;;;;;8364469;28;19976;-70
2021/12/08 08:27:46;;;;;;;;;;;5.00;99.90;;;;;;8382225;28;20028;-70
2021/12/08 08:31:58;;;;;;;;;;;5.00;99.90;;;;;;8383453;28;19968;-70
2021/12/08 08:36:04;;;;;;;;;;;5.00;99.90;;;;;;8382596;28;20372;-70
2021/12/08 08:40:09;;;;;;;;;;;5.00;99.90;;;;;;8383910;28;19935;-70
2021/12/08 08:44:16;;;;;;;;;;;5.00;99.90;;;;;;8380541;28;20333;-70
2021/12/08 08:48:26;;;;;;;;;;;5.10;99.90;;;;;;8356459;28;19955;-70
2021/12/08 08:52:33;;;;;;;;;;;5.10;99.90;;;;;;8383202;28;19958;-70
2021/12/08 08:56:37;;;;;;;;;;;5.20;99.90;;;;;;8380062;28;20363;-70
2021/12/08 09:00:46;;;;;;;;;;;5.30;99.90;;;;;;8383714;28;19969;-70
2021/12/08 09:04:53;;;;;;;;;;;5.50;99.90;;;;;;8378578;28;19924;-70
2021/12/08 09:08:55;;;;;;;;;;;5.80;99.90;;;;;;8378840;28;19955;-70
2021/12/08 09:13:08;;;;;;;;;;;5.90;99.90;;;;;;8382400;28;19972;-70
2021/12/08 09:17:21;;;;;;;;;;;6.10;99.90;;;;;;8381657;28;19925;-70
2021/12/08 09:21:29;;;;;;;;;;;6.30;99.90;;;;;;8381973;28;19925;-70
2021/12/08 09:25:34;;;;;;;;;;;6.30;99.90;;;;;;8368383;28;19933;-70
2021/12/08 09:29:57;;;;;;;;;;;6.30;99.90;;;;;;8379540;28;19933;-70
2021/12/08 09:34:08;;;;;;;;;;;6.30;99.90;;;;;;8381023;28;19924;-70
2021/12/08 09:38:14;;;;;;;;;;;6.20;99.90;;;;;;8380820;28;20340;-70
2021/12/08 09:42:18;;;;;;;;;;;6.20;99.90;;;;;;8380956;28;20008;-70
2021/12/08 09:46:22;;;;;;;;;;;6.30;99.90;;;;;;8364062;28;20345;-70
2021/12/08 09:50:24;;;;;;;;;;;6.40;99.90;;;;;;8376803;28;19928;-70
2021/12/08 09:54:26;;;;;;;;;;;6.50;99.90;;;;;;8361545;28;19933;-70
2021/12/08 09:58:27;;;;;;;;;;;6.60;99.90;;;;;;8380724;28;19935;-70
2021/12/08 10:02:34;;;;;;;;;;;6.60;99.90;;;;;;8363974;28;19928;-70
2021/12/08 10:06:37;;;;;;;;;;;6.70;99.90;;;;;;8381586;28;19959;-70
2021/12/08 10:10:41;;;;;;;;;;;6.70;99.90;;;;;;8379155;28;20283;-70
2021/12/08 10:14:52;;;;;;;;;;;6.90;99.90;;;;;;8379916;28;19932;-70
2021/12/08 10:18:55;;;;;;;;;;;7.00;99.90;;;;;;8361058;28;20494;-70
2021/12/08 10:23:17;;;;;;;;;;;7.10;99.90;;;;;;8363261;28;19929;-70
2021/12/08 10:27:19;;;;;;;;;;;7.30;99.90;;;;;;8379810;28;20257;-70
2021/12/08 10:31:27;;;;;;;;;;;7.60;99.90;;;;;;8377490;28;20387;-70
2021/12/08 10:35:49;;;;;;;;;;;7.70;99.90;;;;;;8374582;28;19979;-70
2021/12/08 10:39:52;;;;;;;;;;;7.50;99.90;;;;;;8379117;28;19939;-71
2021/12/08 10:43:58;;;;;;;;;;;7.30;99.90;;;;;;8378279;28;19986;-71
2021/12/08 10:48:00;;;;;;;;;;;7.20;99.90;;;;;;8374736;28;19960;-71
2021/12/08 10:56:32;;;;;;;;;;;7.50;99.90;;;;;;8371722;28;19955;-70
2021/12/08 11:00:37;;;;;;;;;;;7.40;99.90;;;;;;8378648;28;19940;-70
2021/12/08 11:04:39;;;;;;;;;;;7.20;99.90;;;;;;8361475;28;20008;-70
2021/12/08 11:08:43;;;;;;;;;;;7.40;99.90;;;;;;8376227;28;20241;-70
2021/12/08 11:12:45;;;;;;;;;;;7.90;99.90;;;;;;8371714;28;19971;-70
2021/12/08 11:16:47;;;;;;;;;;;8.30;99.90;;;;;;8377310;28;20063;-70
2021/12/08 11:20:54;;;;;;;;;;;8.80;99.90;;;;;;8378761;28;20368;-70
2021/12/08 11:25:22;;;;;;;;;;;9.00;99.90;;;;;;8380578;28;19960;-70
2021/12/08 11:29:26;;;;;;;;;;;9.00;99.90;;;;;;8384936;28;19975;-70
2021/12/08 11:33:27;;;;;;;;;;;8.50;99.90;;;;;;8382694;28;20232;-70
2021/12/08 11:37:34;;;;;;;;;;;8.10;99.90;;;;;;8384281;28;20002;-70
2021/12/08 11:41:41;;;;;;;;;;;7.70;99.90;;;;;;8384630;28;19928;-70
2021/12/08 11:45:43;;;;;;;;;;;7.70;99.90;;;;;;8378661;28;20007;-70
2021/12/08 11:49:46;;;;;;;;;;;8.30;99.90;;;;;;8384472;28;19967;-70
2021/12/08 11:53:48;;;;;;;;;;;8.80;99.90;;;;;;8382790;28;19937;-70
2021/12/08 11:57:56;;;;;;;;;;;9.30;99.90;;;;;;8384918;28;19936;-70
2021/12/08 12:01:58;;;;;;;;;;;9.70;99.90;;;;;;8367540;28;20028;-70
2021/12/08 12:05:59;;;;;;;;;;;9.90;99.90;;;;;;8381738;28;19935;-70
2021/12/08 12:10:01;;;;;;;;;;;10.10;99.90;;;;;;8382678;28;19925;-70
2021/12/08 12:14:03;;;;;;;;;;;10.30;99.90;;;;;;8380927;28;20288;-70
2021/12/08 12:18:05;;;;;;;;;;;10.40;99.90;;;;;;8363096;28;20003;-70
2021/12/08 12:22:16;;;;;;;;;;;10.70;99.90;;;;;;8379811;28;19928;-70
2021/12/08 12:26:34;;;;;;;;;;;11.00;99.90;;;;;;8351713;28;20018;-70
2021/12/08 12:30:54;;;;;;;;;;;11.20;99.90;;;;;;8380308;28;20368;-69
2021/12/08 12:35:08;;;;;;;;;;;10.70;99.90;;;;;;8378147;28;19963;-70
2021/12/08 12:39:09;;;;;;;;;;;10.40;99.90;;;;;;8379508;28;19964;-70
2021/12/08 12:43:23;;;;;;;;;;;10.40;99.90;;;;;;8371436;28;20290;-70
2021/12/08 12:47:27;;;;;;;;;;;9.90;99.90;;;;;;8378146;28;19928;-70
2021/12/08 12:51:49;;;;;;;;;;;9.30;99.90;;;;;;8378755;28;19933;-70
2021/12/08 12:55:51;;;;;;;;;;;8.90;99.90;;;;;;8375423;28;19986;-70
2021/12/08 12:59:54;;;;;;;;;;;8.80;99.90;;;;;;8390749;28;19931;-70
2021/12/08 13:04:04;;;;;;;;;;;8.90;99.90;;;;;;8381324;28;19932;-70
2021/12/08 13:08:05;;;;;;;;;;;9.10;99.90;;;;;;8367736;28;20390;-70
2021/12/08 13:12:13;;;;;;;;;;;9.70;99.90;;;;;;8364296;28;19928;-70
2021/12/08 13:16:22;;;;;;;;;;;10.30;99.90;;;;;;8379069;28;20299;-70
2021/12/08 13:20:25;;;;;;;;;;;10.30;99.90;;;;;;8377628;28;19932;-70
2021/12/08 13:24:38;;;;;;;;;;;10.20;99.90;;;;;;8381468;28;19932;-70
2021/12/08 13:29:10;;;;;;;;;;;9.90;99.90;;;;;;8381625;28;20360;-70
2021/12/08 13:33:25;;;;;;;;;;;9.50;99.90;;;;;;8380574;28;20445;-70
2021/12/08 13:37:29;;;;;;;;;;;9.00;99.90;;;;;;8377979;28;19932;-70
2021/12/08 13:41:32;;;;;;;;;;;8.80;99.90;;;;;;8381103;28;19946;-70
2021/12/08 13:45:41;;;;;;;;;;;8.60;99.90;;;;;;8360681;28;19932;-70
2021/12/08 13:49:47;;;;;;;;;;;8.50;99.90;;;;;;8376812;28;19932;-70
2021/12/08 13:54:21;;;;;;;;;;;8.50;99.90;;;;;;8345984;28;20687;-70
2021/12/08 13:58:23;;;;;;;;;;;8.50;99.90;;;;;;8348881;28;19925;-70
2021/12/08 14:02:37;;;;;;;;;;;8.40;99.90;;;;;;8375370;28;20299;-70
2021/12/08 14:06:38;;;;;;;;;;;8.20;99.90;;;;;;8370707;28;19925;-70
2021/12/08 14:10:41;;;;;;;;;;;8.20;99.90;;;;;;8380416;28;20019;-70
2021/12/08 14:14:52;;;;;;;;;;;8.20;99.90;;;;;;8351997;28;19939;-70
2021/12/08 14:18:55;;;;;;;;;;;8.10;99.90;;;;;;8374170;28;19939;-70
2021/12/08 14:23:09;;;;;;;;;;;8.10;99.90;;;;;;8368992;28;20075;-70
2021/12/08 14:27:10;;;;;;;;;;;8.00;99.90;;;;;;8372212;28;19933;-70
2021/12/08 14:31:12;;;;;;;;;;;8.00;99.90;;;;;;8376194;28;20368;-70
2021/12/08 14:35:13;;;;;;;;;;;7.90;99.90;;;;;;8355419;28;19943;-70
2021/12/08 14:39:23;;;;;;;;;;;7.90;99.90;;;;;;8386917;28;20589;-69
2021/12/08 14:43:26;;;;;;;;;;;7.90;99.90;;;;;;8376821;28;20392;-70
2021/12/08 14:47:30;;;;;;;;;;;7.80;99.90;;;;;;8376714;28;19931;-70
2021/12/08 14:51:32;;;;;;;;;;;7.70;99.90;;;;;;8380687;28;19974;-70
2021/12/08 14:55:34;;;;;;;;;;;7.70;99.90;;;;;;8377213;28;19932;-70
2021/12/08 14:59:38;;;;;;;;;;;7.70;99.90;;;;;;8379949;28;19939;-70
2021/12/08 15:03:41;;;;;;;;;;;8.00;99.90;;;;;;8367828;28;19972;-70
2021/12/08 15:07:42;;;;;;;;;;;8.20;99.90;;;;;;8364445;28;20426;-70
2021/12/08 15:11:44;;;;;;;;;;;8.50;99.90;;;;;;8384605;28;19931;-70
2021/12/08 15:15:47;;;;;;;;;;;8.40;99.90;;;;;;8381776;28;19974;-69
2021/12/08 15:19:50;;;;;;;;;;;8.20;99.90;;;;;;8383014;28;19924;-70
2021/12/08 15:24:01;;;;;;;;;;;8.00;99.90;;;;;;8381964;28;19933;-70
2021/12/08 15:28:05;;;;;;;;;;;7.70;99.90;;;;;;8381768;28;19966;-70
2021/12/08 15:32:12;;;;;;;;;;;7.50;99.90;;;;;;8384332;28;19928;-70
2021/12/08 15:36:16;;;;;;;;;;;7.40;99.90;;;;;;8384835;28;19969;-70
2021/12/08 15:40:18;;;;;;;;;;;7.20;99.90;;;;;;8383165;28;19976;-70
2021/12/08 15:44:19;;;;;;;;;;;7.10;99.90;;;;;;8383427;28;19962;-69
2021/12/08 15:48:23;;;;;;;;;;;6.90;99.90;;;;;;8380033;28;19971;-69
2021/12/08 15:52:30;;;;;;;;;;;6.80;99.90;;;;;;8379859;28;19943;-69
2021/12/08 15:56:38;;;;;;;;;;;6.70;99.90;;;;;;8381800;28;20035;-70
2021/12/08 16:00:40;;;;;;;;;;;6.60;99.90;;;;;;8383096;28;19924;-69
2021/12/08 16:04:47;;;;;;;;;;;6.50;99.90;;;;;;8363678;28;20345;-69
2021/12/08 16:09:16;;;;;;;;;;;6.40;99.90;;;;;;8383296;28;19924;-70
2021/12/08 16:13:20;;;;;;;;;;;6.30;99.90;;;;;;8382402;28;19952;-69
2021/12/08 16:17:23;;;;;;;;;;;6.20;99.90;;;;;;8365949;28;19925;-70
2021/12/08 16:21:25;;;;;;;;;;;6.20;99.90;;;;;;8380686;28;19975;-70
2021/12/08 16:25:27;;;;;;;;;;;6.10;99.90;;;;;;8355822;28;20317;-69
2021/12/08 16:29:30;;;;;;;;;;;6.10;99.90;;;;;;8375598;28;19974;-69
2021/12/08 16:33:32;;;;;;;;;;;6.00;99.90;;;;;;8366198;28;19932;-69
2021/12/08 16:37:35;;;;;;;;;;;6.00;99.90;;;;;;8379728;28;19972;-69
2021/12/08 16:45:57;;;;;;;;;;;5.80;99.90;;;;;;8377663;28;19924;-70
2021/12/08 16:49:58;;;;;;;;;;;5.80;99.90;;;;;;8379418;28;19960;-69
2021/12/08 16:54:00;;;;;;;;;;;5.70;99.90;;;;;;8379150;28;19987;-70
2021/12/08 16:58:03;;;;;;;;;;;5.70;99.90;;;;;;8358346;28;20360;-69
2021/12/08 17:02:05;;;;;;;;;;;5.60;99.90;;;;;;8379598;28;19956;-69
2021/12/08 17:06:07;;;;;;;;;;;5.60;99.90;;;;;;8379292;28;20393;-69
2021/12/08 17:10:10;;;;;;;;;;;5.60;99.90;;;;;;8381290;28;20360;-70
2021/12/08 17:14:11;;;;;;;;;;;5.50;99.90;;;;;;8376702;28;19924;-69
2021/12/08 17:18:13;;;;;;;;;;;5.50;99.90;;;;;;8376160;28;19932;-69
2021/12/08 17:22:15;;;;;;;;;;;5.40;99.90;;;;;;8377636;28;20547;-69
2021/12/08 17:26:17;;;;;;;;;;;5.40;99.90;;;;;;8378842;28;20026;-69
2021/12/08 17:30:23;;;;;;;;;;;5.30;99.90;;;;;;8378760;28;19966;-70
2021/12/08 17:34:25;;;;;;;;;;;5.30;99.90;;;;;;8376662;28;19929;-70
2021/12/08 17:38:27;;;;;;;;;;;5.30;99.90;;;;;;8361199;28;19928;-69
2021/12/08 17:42:28;;;;;;;;;;;5.30;99.90;;;;;;8367399;28;19928;-69
2021/12/08 17:46:30;;;;;;;;;;;5.30;99.90;;;;;;8373708;28;19967;-69
2021/12/08 17:50:32;;;;;;;;;;;5.20;99.90;;;;;;8369793;28;19931;-69
2021/12/08 17:54:34;;;;;;;;;;;5.20;99.90;;;;;;8378493;28;20057;-69
2021/12/08 17:58:40;;;;;;;;;;;5.20;99.90;;;;;;8369167;28;20483;-69
2021/12/08 18:02:58;;;;;;;;;;;5.10;99.90;;;;;;8373889;28;19932;-70
2021/12/08 18:07:00;;;;;;;;;;;5.10;99.90;;;;;;8353333;28;19951;-69
2021/12/08 18:11:03;;;;;;;;;;;5.10;99.90;;;;;;8375075;28;20303;-69
2021/12/08 18:15:06;;;;;;;;;;;5.10;99.90;;;;;;8376898;28;19932;-69
2021/12/08 18:19:07;;;;;;;;;;;5.00;99.90;;;;;;8370311;28;20316;-69
2021/12/08 18:23:10;;;;;;;;;;;5.00;99.90;;;;;;8370044;28;20430;-69
2021/12/08 18:27:11;;;;;;;;;;;5.00;99.90;;;;;;8377756;28;19924;-69
2021/12/08 18:31:13;;;;;;;;;;;4.90;99.90;;;;;;8363805;28;20537;-69
2021/12/08 18:40:01;;;;;;;;;;;4.90;99.90;;;;;;8384627;28;20440;-69
2021/12/08 18:44:03;;;;;;;;;;;4.90;99.90;;;;;;8383185;28;20402;-69
2021/12/08 18:48:07;;;;;;;;;;;4.80;99.90;;;;;;8395304;28;20384;-69
2021/12/08 18:52:09;;;;;;;;;;;4.80;99.90;;;;;;8382566;28;19967;-69
2021/12/08 18:56:29;;;;;;;;;;;4.80;99.90;;;;;;8379981;28;19931;-69
2021/12/08 19:00:34;;;;;;;;;;;4.80;99.90;;;;;;8367884;28;19937;-69
2021/12/08 19:04:36;;;;;;;;;;;4.70;99.90;;;;;;8385321;28;19928;-69
2021/12/08 19:08:38;;;;;;;;;;;4.70;99.90;;;;;;8377563;28;20102;-70
2021/12/08 19:12:40;;;;;;;;;;;4.70;99.90;;;;;;8374802;28;19928;-69
2021/12/08 19:16:42;;;;;;;;;;;4.70;99.90;;;;;;8373481;28;20467;-69
2021/12/08 19:20:44;;;;;;;;;;;4.60;99.90;;;;;;8373411;28;20225;-69
2021/12/08 19:24:49;;;;;;;;;;;4.60;99.90;;;;;;8379206;28;19966;-69
2021/12/08 19:28:52;;;;;;;;;;;4.60;99.90;;;;;;8379448;28;19933;-69
2021/12/08 19:32:53;;;;;;;;;;;4.50;99.90;;;;;;8376747;28;19994;-69
2021/12/08 19:36:55;;;;;;;;;;;4.50;99.90;;;;;;8374044;28;19943;-70
2021/12/08 19:40:59;;;;;;;;;;;4.40;99.90;;;;;;8379578;28;20362;-69
2021/12/08 19:45:01;;;;;;;;;;;4.40;99.90;;;;;;8378749;28;20383;-70
2021/12/08 19:49:03;;;;;;;;;;;4.30;99.90;;;;;;8372645;28;19928;-70
2021/12/08 19:53:05;;;;;;;;;;;4.30;99.90;;;;;;8363834;28;20344;-70
2021/12/08 19:57:07;;;;;;;;;;;4.30;99.90;;;;;;8362242;28;21050;-70
2021/12/08 20:01:09;;;;;;;;;;;4.20;99.90;;;;;;8365029;28;19976;-70
2021/12/08 20:05:11;;;;;;;;;;;4.20;99.90;;;;;;8372164;28;20360;-70
2021/12/08 20:09:13;;;;;;;;;;;4.20;99.90;;;;;;8370935;28;20398;-70
2021/12/08 20:13:15;;;;;;;;;;;4.10;99.90;;;;;;8373878;28;20402;-70
2021/12/08 20:17:17;;;;;;;;;;;4.10;99.90;;;;;;8374322;28;19959;-69
2021/12/08 20:21:18;;;;;;;;;;;4.00;99.90;;;;;;8381340;28;19968;-69
2021/12/08 20:25:21;;;;;;;;;;;4.00;99.90;;;;;;8379934;28;20867;-69
2021/12/08 20:29:22;;;;;;;;;;;4.00;99.90;;;;;;8362984;28;20372;-69
2021/12/08 20:33:24;;;;;;;;;;;4.00;99.90;;;;;;8377687;28;19932;-69
2021/12/08 20:37:26;;;;;;;;;;;3.90;99.90;;;;;;8382674;28;20381;-69
2021/12/08 20:41:29;;;;;;;;;;;3.90;99.90;;;;;;8362809;28;19971;-69
2021/12/08 20:45:33;;;;;;;;;;;3.90;99.90;;;;;;8379489;28;19924;-69
2021/12/08 20:49:34;;;;;;;;;;;3.90;99.90;;;;;;8379664;28;19935;-69
2021/12/08 20:53:36;;;;;;;;;;;3.80;99.90;;;;;;8376587;28;19944;-70
2021/12/08 20:57:40;;;;;;;;;;;3.80;99.90;;;;;;8380377;28;20039;-69
2021/12/08 21:01:54;;;;;;;;;;;3.70;99.90;;;;;;8378259;28;19968;-69
2021/12/08 21:05:56;;;;;;;;;;;3.70;99.90;;;;;;8370535;28;20261;-69
2021/12/08 21:09:57;;;;;;;;;;;3.70;99.90;;;;;;8381112;28;19928;-69
2021/12/08 21:13:59;;;;;;;;;;;3.70;99.90;;;;;;8347126;28;19924;-69
2021/12/08 21:18:02;;;;;;;;;;;3.70;99.90;;;;;;8373688;28;20024;-69
2021/12/08 21:22:04;;;;;;;;;;;3.70;99.90;;;;;;8361140;28;19925;-69
2021/12/08 21:26:05;;;;;;;;;;;3.70;99.90;;;;;;8377816;28;20404;-69
2021/12/08 21:30:07;;;;;;;;;;;3.70;99.90;;;;;;8377391;28;19939;-69
2021/12/08 21:34:11;;;;;;;;;;;3.60;99.90;;;;;;8377581;28;19928;-69
2021/12/08 21:38:23;;;;;;;;;;;3.60;99.90;;;;;;8378573;28;19924;-69
2021/12/08 21:42:24;;;;;;;;;;;3.60;99.90;;;;;;8380244;28;19924;-70
2021/12/08 21:46:26;;;;;;;;;;;3.60;99.90;;;;;;8378213;28;20494;-69
2021/12/08 21:50:29;;;;;;;;;;;3.60;99.90;;;;;;8377785;28;20451;-69
2021/12/08 21:54:33;;;;;;;;;;;3.60;99.90;;;;;;8358495;28;22214;-69
2021/12/08 21:58:35;;;;;;;;;;;3.60;99.90;;;;;;8377552;28;19967;-69
2021/12/08 22:02:37;;;;;;;;;;;3.60;99.90;;;;;;8366817;28;19924;-70
2021/12/08 22:06:40;;;;;;;;;;;3.50;99.90;;;;;;8379293;28;21222;-69
2021/12/08 22:10:46;;;;;;;;;;;3.50;99.90;;;;;;8389743;28;19933;-70
2021/12/08 22:14:48;;;;;;;;;;;3.40;99.90;;;;;;8361132;28;19932;-69
2021/12/08 22:18:50;;;;;;;;;;;3.40;99.90;;;;;;8380546;28;20619;-69
2021/12/08 22:22:52;;;;;;;;;;;3.40;99.90;;;;;;8390631;28;19975;-69
2021/12/08 22:26:53;;;;;;;;;;;3.40;99.90;;;;;;8381471;28;19976;-70
2021/12/08 22:30:55;;;;;;;;;;;3.40;99.90;;;;;;8388865;28;19931;-69
2021/12/08 22:35:14;;;;;;;;;;;3.40;99.90;;;;;;8366222;28;19925;-69
2021/12/08 22:39:15;;;;;;;;;;;3.30;99.90;;;;;;8384048;28;19976;-69
2021/12/08 22:43:19;;;;;;;;;;;3.30;99.90;;;;;;8382383;28;19929;-69
2021/12/08 22:47:20;;;;;;;;;;;3.40;99.90;;;;;;8389282;28;19933;-70
2021/12/08 22:51:25;;;;;;;;;;;3.30;99.90;;;;;;8393403;28;20269;-69
2021/12/08 22:55:27;;;;;;;;;;;3.30;99.90;;;;;;8370707;28;19929;-69
2021/12/08 22:59:28;;;;;;;;;;;3.30;99.90;;;;;;8359875;28;19982;-69
2021/12/08 23:03:30;;;;;;;;;;;3.30;99.90;;;;;;8378934;28;19978;-70
2021/12/08 23:07:32;;;;;;;;;;;3.30;99.90;;;;;;8373004;28;19924;-69
2021/12/08 23:11:36;;;;;;;;;;;3.30;99.90;;;;;;8380950;28;19987;-69
2021/12/08 23:15:38;;;;;;;;;;;3.20;99.90;;;;;;8366500;28;20427;-69
2021/12/08 23:19:39;;;;;;;;;;;3.20;99.90;;;;;;8366220;28;19932;-69
2021/12/08 23:23:41;;;;;;;;;;;3.20;99.90;;;;;;8382451;28;20391;-69
2021/12/08 23:27:42;;;;;;;;;;;3.20;99.90;;;;;;8372867;28;19924;-69
2021/12/08 23:31:46;;;;;;;;;;;3.10;99.90;;;;;;8382094;28;20328;-69
2021/12/08 23:35:54;;;;;;;;;;;3.10;99.90;;;;;;8381458;28;19967;-69
2021/12/08 23:39:56;;;;;;;;;;;3.10;99.90;;;;;;8385892;28;19924;-69
2021/12/08 23:43:59;;;;;;;;;;;3.10;99.90;;;;;;8365225;28;19936;-69
2021/12/08 23:48:02;;;;;;;;;;;3.10;99.90;;;;;;8367789;28;19935;-69
2021/12/08 23:52:03;;;;;;;;;;;3.10;99.90;;;;;;8385435;28;19924;-69
2021/12/08 23:56:06;;;;;;;;;;;3.10;99.90;;;;;;8379183;28;20320;-70
